Latest Weather Observations for Amberley

IDQ60901

Issued at 7:41 pm EST Thursday 21 February 2019 (issued every 10 minutes, with the page automatically refreshed every 10 minutes)

About weather observations | Map of Brisbane area stations | Latest observations for Brisbane area | Other Formats
Station Details ID: 040004 Name: AMBERLEY AMO Lat: -27.63 Lon: 152.71 Height: 24.2 m
Data from the previous 72 hours. | See also: Recent months at Amberley
Date/Time
EST
Temp
°C
App
Temp
°C
Dew
Point
°C
Rel
Hum
%
Delta-T
°C
Wind Press
QNH
hPa
Press
MSL
hPa
Rain since
9am
mm
Dir  Spd
km/h
Gust
km/h
Spd
kts
Gust
kts
21/07:30pm 29.0 26.5 16.2 46 8.0 SSE 24 32 13 17 1007.9 1007.7 0.0
21/07:00pm 29.8 26.5 16.9 45 8.1 SE 30 43 16 23 1007.2 1007.0 0.0
21/06:30pm 30.8 27.4 16.8 43 8.8 SE 30 41 16 22 1006.5 1006.3 0.0
21/06:00pm 32.0 28.1 15.5 37 10.3 SE 30 41 16 22 1005.8 1005.6 0.0
21/05:30pm 32.9 28.6 14.5 33 11.3 SE 30 43 16 23 1005.4 1005.2 0.0
21/05:00pm 33.6 29.2 15.1 33 11.5 SE 32 44 17 24 1005.0 1004.8 0.0
21/04:30pm 34.2 30.7 16.5 34 11.2 ESE 30 37 16 20 1004.8 1004.6 0.0
21/04:00pm 33.8 31.1 17.5 38 10.5 E 28 37 15 20 1004.6 1004.4 0.0
21/03:30pm 34.5 30.9 17.3 36 11.1 ESE 32 41 17 22 1004.7 1004.5 0.0
21/03:00pm 34.0 31.5 18.9 41 9.9 ESE 30 41 16 22 1005.0 1004.8 0.0
21/02:30pm 34.3 33.6 19.5 41 9.8 ESE 22 35 12 19 1005.0 1004.8 0.0
21/02:00pm 33.6 32.2 20.4 46 8.8 ESE 28 41 15 22 1005.6 1005.4 0.0
21/01:35pm 33.2 32.6 19.7 45 8.9 E 22 48 12 26 1006.1 1005.9 0.0
21/01:30pm 33.2 33.2 19.7 45 8.9 E 19 28 10 15 1006.1 1005.9 0.0
21/01:00pm 34.3 33.7 18.8 40 10.2 SE 20 33 11 18 1006.5 1006.3 0.0
21/12:30pm 34.1 33.6 19.0 41 9.9 SSE 20 33 11 18 1006.8 1006.6 0.0
21/12:00pm 32.6 31.6 17.6 40 9.6 SE 19 30 10 16 1007.1 1006.9 0.0
21/11:30am 34.1 35.1 19.4 42 9.7 SSE 13 24 7 13 1007.3 1007.1 0.0
21/11:00am 32.7 33.4 18.8 43 9.1 S 13 22 7 12 1007.8 1007.6 0.0
21/10:30am 31.0 32.0 18.7 48 8.0 S 11 26 6 14 1008.2 1008.0 0.0
21/10:00am 30.9 31.1 18.6 48 8.0 ESE 15 26 8 14 1008.3 1008.1 0.0
21/09:30am 29.5 30.4 19.2 54 6.7 S 13 20 7 11 1008.4 1008.2 0.0
21/09:00am 29.2 30.5 19.2 54 6.5 S 11 17 6 9 1008.2 1008.0 0.0
21/08:30am 28.5 28.8 19.7 59 5.7 S 17 26 9 14 1008.2 1008.0 0.0
21/08:00am 27.5 28.8 20.1 64 4.9 SSW 13 17 7 9 1008.1 1007.9 0.0
21/07:30am 25.4 27.4 20.0 72 3.5 SSW 9 11 5 6 1008.2 1008.0 0.0
21/07:00am 24.0 25.8 20.3 80 2.4 SSW 11 13 6 7 1008.0 1007.8 0.0
21/06:30am 22.3 25.0 20.2 88 1.4 SSW 6 11 3 6 1007.6 1007.4 0.0
21/06:00am 21.3 24.2 19.9 92 0.9 SSW 4 7 2 4 1007.1 1006.9 0.0
21/05:30am 21.1 24.6 19.6 91 1.0 CALM 0 0 0 0 1006.9 1006.7 0.0
21/05:00am 21.7 25.4 20.0 90 1.1 CALM 0 7 0 4 1006.5 1006.3 0.0
21/04:30am 21.8 25.7 20.3 91 1.0 CALM 0 0 0 0 1006.3 1006.1 0.0
21/04:00am 21.9 25.6 20.0 89 1.2 CALM 0 0 0 0 1006.1 1005.9 0.0
21/03:30am 22.4 26.5 20.7 90 1.1 CALM 0 0 0 0 1006.0 1005.8 0.0
21/03:00am 22.4 26.2 20.1 87 1.5 CALM 0 0 0 0 1006.1 1005.9 0.0
21/02:30am 23.6 26.9 20.7 84 1.9 NE 4 9 2 5 1006.2 1006.0 0.0
21/02:00am 24.3 27.3 20.8 81 2.3 NE 6 9 3 5 1006.4 1006.2 0.0
21/01:30am 24.7 27.7 20.8 79 2.6 NE 6 9 3 5 1006.5 1006.3 0.0
21/01:00am 24.4 26.9 21.1 82 2.2 SE 9 11 5 6 1006.8 1006.6 0.0
21/12:30am 24.9 28.7 21.0 79 2.6 SE 2 6 1 3 1007.8 1007.6 0.0
21/12:00am 25.2 26.8 20.7 76 3.0 SE 13 26 7 14 1008.4 1008.2 0.0
 
Date/Time
EST
Temp
°C
App
Temp
°C
Dew
Point
°C
Rel
Hum
%
Delta-T
°C
Wind Press
QNH
hPa
Press
MSL
hPa
Rain since
9am
mm
Dir  Spd
km/h
Gust
km/h
Spd
kts
Gust
kts
20/11:30pm 25.6 26.6 21.1 76 3.0 ESE 17 22 9 12 1008.6 1008.4 0.0
20/11:00pm 25.9 27.7 21.1 75 3.2 SSE 13 20 7 11 1009.0 1008.8 0.0
20/10:30pm 25.7 27.6 21.4 77 2.9 SSE 13 15 7 8 1008.9 1008.7 0.0
20/10:00pm 26.2 27.9 21.6 76 3.1 E 15 19 8 10 1008.2 1008.0 0.0
20/09:30pm 26.1 27.7 21.5 76 3.1 E 15 20 8 11 1007.9 1007.7 0.0
20/09:00pm 26.0 27.4 21.0 74 3.3 E 15 20 8 11 1007.1 1006.9 0.0
20/08:30pm 26.3 27.5 20.6 71 3.7 E 15 20 8 11 1007.0 1006.8 0.0
20/08:00pm 26.9 27.5 20.3 67 4.3 E 17 24 9 13 1006.5 1006.3 0.0
20/07:30pm 27.2 26.5 19.5 62 5.0 ENE 22 32 12 17 1006.2 1006.0 0.0
20/07:00pm 27.6 26.7 19.9 63 5.0 E 24 32 13 17 1005.6 1005.4 0.0
20/06:30pm 28.1 25.5 19.6 60 5.5 ENE 32 39 17 21 1005.1 1004.9 0.0
20/06:00pm 28.9 27.6 19.8 58 6.0 ENE 26 37 14 20 1005.0 1004.8 0.0
20/05:30pm 29.9 27.7 19.6 54 6.7 ENE 30 39 16 21 1004.4 1004.2 0.0
20/05:00pm 31.7 28.8 19.3 47 8.1 ENE 33 43 18 23 1004.0 1003.8 0.0
20/04:30pm 32.8 30.5 19.3 45 8.9 ENE 30 37 16 20 1003.8 1003.6 0.0
20/04:00pm 34.0 31.5 18.1 39 10.3 ENE 28 35 15 19 1003.6 1003.4 0.0
20/03:30pm 34.1 32.8 18.2 39 10.3 ENE 22 33 12 18 1003.7 1003.5 0.0
20/03:00pm 35.4 34.2 17.6 35 11.5 E 20 35 11 19 1003.8 1003.6 0.0
20/02:30pm 35.6 34.1 16.8 32 12.0 NE 20 28 11 15 1004.1 1003.9 0.0
20/02:00pm 35.0 33.5 16.3 32 11.9 E 19 32 10 17 1004.6 1004.4 0.0
20/01:30pm 35.5 35.0 16.8 33 12.0 E 15 26 8 14 1005.3 1005.1 0.0
20/01:00pm 35.2 34.2 16.5 33 11.9 ENE 17 32 9 17 1005.8 1005.6 0.0
20/12:30pm 33.6 32.8 15.1 33 11.5 NNE 13 26 7 14 1006.4 1006.2 0.0
20/12:00pm 33.2 33.0 15.7 35 11.0 NNE 11 24 6 13 1006.8 1006.6 0.0
20/11:30am 32.9 32.7 16.7 38 10.3 NE 13 24 7 13 1007.4 1007.2 0.0
20/11:00am 31.7 32.3 17.6 43 9.0 SSE 11 19 6 10 1007.9 1007.7 0.0
20/10:30am 31.6 32.8 18.2 44 8.6 E 9 17 5 9 1008.4 1008.2 0.0
20/10:00am 31.2 32.4 18.2 46 8.4 SE 9 19 5 10 1008.8 1008.6 0.0
20/09:30am 30.1 31.9 19.5 53 6.9 SE 9 17 5 9 1009.0 1008.8 0.0
20/09:00am 28.7 28.9 19.3 56 6.1 ESE 17 28 9 15 1009.0 1008.8 0.0
20/08:30am 27.3 28.9 19.9 64 4.8 SE 11 17 6 9 1009.0 1008.8 0.0
20/08:00am 26.7 28.9 20.3 68 4.2 S 9 13 5 7 1009.0 1008.8 0.0
20/07:30am 25.6 27.8 21.1 76 3.0 S 11 15 6 8 1008.9 1008.7 0.0
20/07:00am 24.1 26.1 20.8 82 2.2 SW 11 13 6 7 1008.7 1008.5 0.0
20/06:30am 22.5 26.1 20.6 89 1.2 S 2 11 1 6 1008.5 1008.3 0.0
20/06:00am 22.2 24.6 20.1 88 1.4 S 7 7 4 4 1008.1 1007.9 0.0
20/05:30am 22.2 24.6 20.1 88 1.4 S 7 7 4 4 1008.0 1007.8 0.0
20/05:00am 22.2 24.5 20.7 91 1.0 S 9 9 5 5 1007.7 1007.5 0.0
20/04:30am 21.6 24.9 19.9 90 1.1 S 2 7 1 4 1007.3 1007.1 0.0
20/04:00am 21.3 23.6 19.8 91 1.0 S 7 7 4 4 1007.1 1006.9 0.0
20/03:30am 21.2 23.4 19.7 91 1.0 S 7 9 4 5 1007.0 1006.8 0.0
20/03:20am 21.5 23.5 20.0 91 1.0 S 9 11 5 6 1006.9 1006.7 0.0
20/03:00am 21.3 23.1 19.6 90 1.1 S 9 9 5 5 1006.5 1006.3 0.0
20/02:30am 21.5 23.7 19.6 89 1.2 SSW 7 9 4 5 1006.2 1006.0 0.0
20/02:00am 22.1 24.1 20.0 88 1.4 S 9 11 5 6 1006.3 1006.1 0.0
20/01:30am 22.0 23.7 19.4 85 1.7 ESE 9 11 5 6 1006.3 1006.1 0.0
20/01:00am 22.9 24.2 20.2 85 1.7 E 13 15 7 8 1006.5 1006.3 0.0
20/12:30am 22.9 24.2 20.2 85 1.7 E 13 20 7 11 1006.9 1006.7 0.0
20/12:00am 23.0 26.0 20.1 84 1.9 SE 4 7 2 4 1007.3 1007.1 0.0
 
Date/Time
EST
Temp
°C
App
Temp
°C
Dew
Point
°C
Rel
Hum
%
Delta-T
°C
Wind Press
QNH
hPa
Press
MSL
hPa
Rain since
9am
mm
Dir  Spd
km/h
Gust
km/h
Spd
kts
Gust
kts
19/11:30pm 23.4 25.2 20.3 83 2.0 SE 11 13 6 7 1007.4 1007.2 0.0
19/11:00pm 23.7 25.5 20.4 82 2.1 SE 11 13 6 7 1007.7 1007.5 0.0
19/10:30pm 24.3 26.2 20.6 80 2.4 SE 11 13 6 7 1007.8 1007.6 0.0
19/10:00pm 24.6 26.5 20.5 78 2.7 ESE 11 15 6 8 1007.9 1007.7 0.0
19/09:30pm 25.1 26.6 20.6 76 2.9 ESE 13 15 7 8 1007.8 1007.6 0.0
19/09:00pm 25.5 27.0 20.5 74 3.3 E 13 19 7 10 1007.6 1007.4 0.0
19/08:30pm 25.8 26.2 20.6 73 3.4 E 19 26 10 14 1007.3 1007.1 0.0
19/08:00pm 26.3 26.7 20.6 71 3.8 E 19 26 10 14 1006.8 1006.6 0.0
19/07:30pm 26.7 26.8 20.3 68 4.2 ENE 20 32 11 17 1006.3 1006.1 0.0
19/07:00pm 27.3 26.4 19.9 64 4.8 ENE 24 33 13 18 1005.9 1005.7 0.0
19/06:30pm 28.0 26.0 20.0 61 5.2 ENE 30 37 16 20 1005.5 1005.3 0.0
19/06:00pm 28.9 27.2 19.8 58 6.0 ENE 28 37 15 20 1004.8 1004.6 0.0
19/05:30pm 30.2 27.8 19.9 54 6.8 ENE 32 41 17 22 1004.4 1004.2 0.0
19/05:00pm 32.4 29.7 19.3 46 8.6 ENE 32 39 17 21 1003.9 1003.7 0.0
19/04:30pm 34.8 32.8 18.4 38 10.7 ENE 26 33 14 18 1003.4 1003.2 0.0
19/04:00pm 35.2 32.7 17.0 34 11.7 ENE 26 33 14 18 1003.3 1003.1 0.0
19/03:30pm 36.6 36.0 15.7 29 13.2 NE 13 28 7 15 1003.3 1003.1 0.0
19/03:00pm 36.4 35.4 15.5 29 13.2 NE 15 24 8 13 1003.5 1003.3 0.0
19/02:30pm 35.9 35.5 15.1 29 13.0 NE 11 19 6 10 1003.9 1003.7 0.0
19/02:00pm 35.6 34.9 15.3 29 12.8 E 13 19 7 10 1004.3 1004.1 0.0
19/01:30pm 34.4 34.4 15.3 31 11.9 N 9 15 5 8 1005.1 1004.9 0.0
19/01:00pm 34.2 33.8 15.1 31 11.9 S 11 15 6 8 1005.8 1005.6 0.0
19/12:30pm 32.9 32.7 15.8 35 10.7 SE 11 17 6 9 1006.3 1006.1 0.0
19/12:00pm 32.2 31.8 16.1 38 10.1 E 13 22 7 12 1006.9 1006.7 0.0
19/11:30am 31.4 31.9 16.6 41 9.3 SSE 9 15 5 8 1007.5 1007.3 0.0
19/11:00am 31.1 32.5 17.8 45 8.5 NW 7 11 4 6 1008.0 1007.8 0.0
19/10:30am 29.8 30.9 17.9 48 7.6 W 9 17 5 9 1008.4 1008.2 0.0
19/10:00am 28.4 29.5 17.9 53 6.7 E 9 19 5 10 1009.0 1008.8 0.0
19/09:30am 28.2 29.7 18.9 57 6.0 NNW 9 15 5 8 1009.2 1009.0 0.0
19/09:00am 26.6 27.8 18.2 60 5.3 NW 9 15 5 8 1009.3 1009.1 0.0
19/08:30am 25.6 26.9 18.5 65 4.5 S 9 13 5 7 1009.4 1009.3 0.0
19/08:00am 24.0 25.7 18.0 69 3.8 SW 6 9 3 5 1009.4 1009.3 0.0
19/07:30am 22.4 24.1 18.0 76 2.7 SSE 6 9 3 5 1009.4 1009.3 0.0
19/07:00am 20.4 23.1 17.8 85 1.6 CALM 0 2 0 1 1009.2 1009.0 0.0
19/06:30am 18.0 20.4 16.9 93 0.7 CALM 0 0 0 0 1009.2 1009.0 0.0
19/06:00am 17.1 19.2 16.3 95 0.5 CALM 0 0 0 0 1009.0 1008.8 0.0
19/05:30am 16.7 17.3 15.9 95 0.5 E 7 7 4 4 1008.9 1008.7 0.0
19/05:00am 17.3 19.5 16.5 95 0.5 CALM 0 0 0 0 1008.8 1008.6 0.0
19/04:30am 17.1 19.0 15.8 92 0.8 CALM 0 0 0 0 1008.7 1008.5 0.0
19/04:00am 17.4 19.4 16.1 92 0.8 CALM 0 0 0 0 1008.7 1008.5 0.0
19/03:30am 17.7 19.9 16.4 92 0.8 CALM 0 0 0 0 1008.8 1008.6 0.0
19/03:00am 18.2 20.6 16.9 92 0.8 CALM 0 0 0 0 1008.9 1008.7 0.0
19/02:30am 17.8 18.5 16.1 90 1.0 E 7 9 4 5 1009.2 1009.0 0.0
19/02:00am 18.3 20.5 16.5 89 1.1 CALM 0 0 0 0 1009.4 1009.3 0.0
19/01:30am 18.7 19.6 16.1 85 1.5 E 6 7 3 4 1009.6 1009.5 0.0
19/01:00am 19.7 20.9 17.3 86 1.5 E 7 7 4 4 1009.8 1009.7 0.0
19/12:30am 19.9 22.2 16.7 82 1.9 CALM 0 0 0 0 1010.3 1010.2 0.0
19/12:00am 20.2 20.8 16.8 81 2.1 E 9 9 5 5 1010.6 1010.5 0.0
 
Date/Time
EST
Temp
°C
App
Temp
°C
Dew
Point
°C
Rel
Hum
%
Delta-T
°C
Wind Press
QNH
hPa
Press
MSL
hPa
Rain since
9am
mm
Dir  Spd
km/h
Gust
km/h
Spd
kts
Gust
kts
18/11:30pm 21.8 22.7 17.6 77 2.6 E 9 9 5 5 1010.8 1010.7 0.0
18/11:00pm 22.4 23.9 18.0 76 2.7 E 7 9 4 5 1010.9 1010.8 0.0
18/10:30pm 22.6 24.0 17.3 72 3.3 ENE 6 9 3 5 1011.0 1010.9 0.0
18/10:00pm 23.6 24.6 17.8 70 3.6 E 9 11 5 6 1011.0 1010.9 0.0
18/09:30pm 24.2 24.5 17.9 68 3.9 ENE 13 15 7 8 1011.2 1011.1 0.0
18/09:00pm 24.5 24.7 17.7 66 4.3 ENE 13 15 7 8 1011.0 1010.9 0.0
18/08:30pm 24.9 25.2 17.9 65 4.4 ENE 13 19 7 10 1010.8 1010.7 0.0
18/08:00pm 25.4 24.6 17.1 60 5.2 ENE 17 26 9 14 1010.5 1010.4 0.0

Latest Capital City Observations: Canberra | Sydney | Melbourne | Brisbane | Adelaide | Perth | Hobart | Darwin

Other formats

Comma delimited format used in spreadsheet applications
http://www.bom.gov.au/fwo/IDQ60901/IDQ60901.94568.axf

JavaScript Object Notation format (JSON) in row-major order
http://www.bom.gov.au/fwo/IDQ60901/IDQ60901.94568.json

Data quality

Most of these data are generated automatically and are frequently updated. Quality checks on data are not normally performed. It is possible for incorrect values to appear. Refer to information at About Latest Weather Observations and please check the disclaimer before using these data.